createdAt,value
2018-09-05T00:01:58.019Z,18.42
2018-09-05T00:04:26.682Z,18.50
2018-09-05T00:06:55.472Z,18.50
2018-09-05T00:09:24.255Z,18.44
2018-09-05T00:11:52.978Z,18.54
2018-09-05T00:14:21.806Z,18.57
2018-09-05T00:16:50.573Z,18.39
2018-09-05T00:19:19.242Z,18.32
2018-09-05T00:21:47.911Z,18.38
2018-09-05T00:24:16.572Z,18.20
2018-09-05T00:26:45.247Z,18.14
2018-09-05T00:29:13.992Z,18.10
2018-09-05T00:31:42.704Z,17.97
2018-09-05T00:34:11.446Z,17.89
2018-09-05T00:36:40.105Z,17.94
2018-09-05T00:39:09.722Z,17.97
2018-09-05T00:41:38.604Z,17.97
2018-09-05T00:44:07.455Z,17.85
2018-09-05T00:46:36.224Z,17.76
2018-09-05T00:49:05.077Z,17.63
2018-09-05T00:51:33.755Z,17.48
2018-09-05T00:54:02.430Z,17.50
2018-09-05T00:56:31.202Z,17.52
2018-09-05T00:58:59.914Z,17.51
2018-09-05T01:01:28.859Z,17.47
2018-09-05T01:03:57.630Z,17.40
2018-09-05T01:06:26.350Z,17.49
2018-09-05T01:08:55.651Z,17.62
2018-09-05T01:11:24.411Z,17.70
2018-09-05T01:13:53.134Z,17.69
2018-09-05T01:16:21.842Z,17.82
2018-09-05T01:18:50.529Z,17.85
2018-09-05T01:21:19.284Z,17.64
2018-09-05T01:23:47.943Z,17.37
2018-09-05T01:26:16.616Z,17.16
2018-09-05T01:28:45.325Z,17.04
2018-09-05T01:31:13.974Z,16.97
2018-09-05T01:33:42.630Z,16.96
2018-09-05T01:36:17.489Z,16.92
2018-09-05T01:38:46.204Z,16.87
2018-09-05T01:41:15.710Z,16.84
2018-09-05T01:43:44.893Z,16.80
2018-09-05T01:46:13.695Z,16.78
2018-09-05T01:48:42.404Z,16.76
2018-09-05T01:51:11.232Z,16.87
2018-09-05T01:53:39.963Z,16.95
2018-09-05T01:56:08.625Z,16.95
2018-09-05T01:58:37.352Z,17.07
2018-09-05T02:01:06.056Z,17.14
2018-09-05T02:03:34.803Z,17.30
2018-09-05T02:06:03.500Z,17.31
2018-09-05T02:08:32.174Z,17.37
2018-09-05T02:11:00.878Z,17.40
2018-09-05T02:13:29.537Z,17.46
2018-09-05T02:15:58.271Z,17.52
2018-09-05T02:18:26.966Z,17.55
2018-09-05T02:20:55.674Z,17.58
2018-09-05T02:23:24.329Z,17.54
2018-09-05T02:25:53.626Z,17.59
2018-09-05T02:28:22.276Z,17.67
2018-09-05T02:30:50.968Z,17.70
2018-09-05T02:33:19.647Z,17.67
2018-09-05T02:35:48.358Z,17.64
2018-09-05T02:38:17.015Z,17.41
2018-09-05T02:40:45.710Z,17.15
2018-09-05T02:43:18.476Z,17.03
2018-09-05T02:45:47.217Z,17.01
2018-09-05T02:48:16.078Z,16.96
2018-09-05T02:50:46.054Z,16.86
2018-09-05T02:53:16.108Z,16.70
2018-09-05T02:55:50.594Z,16.53
2018-09-05T02:58:19.678Z,16.45
2018-09-05T03:00:49.402Z,16.35
2018-09-05T03:03:19.326Z,16.32
2018-09-05T03:05:49.151Z,16.37
2018-09-05T03:08:19.133Z,16.42
2018-09-05T03:10:48.668Z,16.44
2018-09-05T03:13:18.260Z,16.46
2018-09-05T03:15:47.763Z,16.47
2018-09-05T03:18:17.339Z,16.46
2018-09-05T03:20:46.079Z,16.58
2018-09-05T03:23:14.779Z,16.61
2018-09-05T03:25:43.474Z,16.73
2018-09-05T03:28:12.220Z,16.65
2018-09-05T03:30:41.065Z,16.55
2018-09-05T03:33:09.819Z,16.46
2018-09-05T03:35:39.633Z,16.36
2018-09-05T03:38:08.333Z,16.37
2018-09-05T03:40:37.025Z,16.33
2018-09-05T03:43:05.772Z,16.25
2018-09-05T03:45:34.486Z,16.16
2018-09-05T03:48:03.201Z,16.19
2018-09-05T03:50:31.962Z,16.18
2018-09-05T03:53:00.638Z,16.17
2018-09-05T03:55:29.348Z,16.26
2018-09-05T03:57:58.006Z,16.39
2018-09-05T04:00:30.290Z,16.37
2018-09-05T04:02:59.013Z,16.39
2018-09-05T04:05:27.840Z,16.35
2018-09-05T04:07:56.533Z,16.42
2018-09-05T04:10:25.217Z,16.33
2018-09-05T04:12:53.911Z,16.30
2018-09-05T04:15:22.675Z,16.18
2018-09-05T04:17:51.423Z,16.15
2018-09-05T04:20:20.153Z,16.08
2018-09-05T04:22:48.801Z,16.07
2018-09-05T04:25:17.440Z,16.10
2018-09-05T04:27:46.147Z,16.13
2018-09-05T04:30:14.853Z,16.08
2018-09-05T04:32:43.566Z,16.15
2018-09-05T04:35:12.250Z,16.10
2018-09-05T04:37:40.929Z,16.11
2018-09-05T04:40:09.677Z,16.12
2018-09-05T04:42:38.391Z,16.11
2018-09-05T04:45:07.186Z,16.15
2018-09-05T04:47:35.992Z,16.24
2018-09-05T04:50:04.745Z,16.20
2018-09-05T04:52:33.436Z,16.20
2018-09-05T04:55:02.109Z,16.23
2018-09-05T04:57:30.857Z,16.26
2018-09-05T05:02:13.234Z,16.29
2018-09-05T05:04:41.909Z,16.12
2018-09-05T05:07:10.585Z,16.06
2018-09-05T05:09:39.358Z,15.95
2018-09-05T05:12:08.023Z,15.86
2018-09-05T05:14:36.728Z,15.94
2018-09-05T05:17:05.438Z,15.91
2018-09-05T05:19:34.188Z,15.97
2018-09-05T05:22:03.489Z,15.94
2018-09-05T05:24:32.172Z,16.01
2018-09-05T05:27:00.827Z,16.00
2018-09-05T05:29:29.475Z,16.10
2018-09-05T05:31:58.098Z,16.12
2018-09-05T05:34:26.819Z,16.13
2018-09-05T05:36:55.516Z,15.98
2018-09-05T05:39:24.137Z,15.85
2018-09-05T05:41:53.108Z,15.82
2018-09-05T05:44:21.767Z,15.93
2018-09-05T05:46:50.699Z,16.00
2018-09-05T05:49:19.272Z,16.14
2018-09-05T05:51:48.015Z,16.14
2018-09-05T05:54:16.696Z,16.17
2018-09-05T05:56:45.326Z,16.25
2018-09-05T05:59:13.984Z,16.16
2018-09-05T06:01:42.699Z,16.25
2018-09-05T06:04:11.422Z,16.26
2018-09-05T06:06:40.137Z,16.42
2018-09-05T06:09:10.599Z,16.42
2018-09-05T06:11:39.386Z,16.46
2018-09-05T06:14:08.085Z,16.57
2018-09-05T06:16:36.720Z,16.59
2018-09-05T06:19:05.486Z,16.63
2018-09-05T06:21:34.176Z,16.64
2018-09-05T06:24:02.954Z,16.61
2018-09-05T06:26:31.632Z,16.62
2018-09-05T06:29:00.298Z,16.59
2018-09-05T06:31:29.208Z,16.82
2018-09-05T06:33:57.959Z,16.94
2018-09-05T06:36:26.623Z,17.08
2018-09-05T06:38:55.409Z,17.31
2018-09-05T06:41:24.111Z,17.26
2018-09-05T06:43:52.816Z,17.33
2018-09-05T06:46:21.555Z,17.39
2018-09-05T06:48:50.186Z,17.44
2018-09-05T06:51:18.911Z,17.51
2018-09-05T06:53:47.532Z,17.38
2018-09-05T06:56:16.205Z,17.45
2018-09-05T06:58:44.955Z,17.52
2018-09-05T07:01:14.143Z,17.50
2018-09-05T07:03:43.260Z,17.46
2018-09-05T07:06:11.906Z,17.62
2018-09-05T07:08:40.589Z,17.85
2018-09-05T07:11:09.223Z,17.91
2018-09-05T07:13:37.959Z,18.08
2018-09-05T07:16:06.700Z,17.99
2018-09-05T07:18:35.396Z,17.91
2018-09-05T07:21:06.995Z,18.02
2018-09-05T07:23:32.827Z,18.06
2018-09-05T07:26:01.484Z,18.10
2018-09-05T07:28:30.155Z,18.08
2018-09-05T07:30:58.972Z,18.10
2018-09-05T07:33:27.787Z,18.26
2018-09-05T07:35:56.596Z,18.43
2018-09-05T07:38:25.309Z,18.38
2018-09-05T07:40:54.222Z,18.37
2018-09-05T07:43:22.878Z,18.32
2018-09-05T07:45:51.591Z,18.46
2018-09-05T07:48:20.308Z,18.66
2018-09-05T07:50:49.022Z,18.59
2018-09-05T07:53:17.769Z,18.68
2018-09-05T07:55:46.432Z,18.68
2018-09-05T07:58:15.091Z,18.85
2018-09-05T08:00:43.842Z,19.06
2018-09-05T08:03:12.556Z,19.22
2018-09-05T08:05:41.265Z,19.25
2018-09-05T08:08:09.909Z,19.51
2018-09-05T08:10:38.776Z,19.60
2018-09-05T08:13:08.926Z,19.63
2018-09-05T08:15:37.957Z,19.49
2018-09-05T08:18:07.147Z,19.53
2018-09-05T08:20:36.082Z,19.71
2018-09-05T08:23:05.092Z,19.75
2018-09-05T08:25:33.760Z,19.77
2018-09-05T08:28:02.508Z,19.89
2018-09-05T08:30:31.241Z,20.22
2018-09-05T08:32:59.994Z,20.35
2018-09-05T08:35:30.121Z,20.40
2018-09-05T08:37:58.747Z,20.42
2018-09-05T08:40:27.331Z,20.37
2018-09-05T08:42:55.983Z,20.56
2018-09-05T08:45:24.921Z,20.52
2018-09-05T08:47:53.467Z,20.58
2018-09-05T08:50:22.159Z,20.55
2018-09-05T08:52:50.897Z,20.51
2018-09-05T08:55:19.641Z,20.70
2018-09-05T08:57:48.359Z,20.92
2018-09-05T09:00:17.059Z,20.97
2018-09-05T09:02:45.709Z,20.70
2018-09-05T09:05:14.391Z,20.86
2018-09-05T09:07:43.135Z,21.07
2018-09-05T09:10:11.905Z,21.11
2018-09-05T09:12:40.594Z,21.06
2018-09-05T09:15:09.302Z,21.14
2018-09-05T09:17:38.014Z,21.17
2018-09-05T09:20:06.899Z,20.85
2018-09-05T09:22:35.620Z,20.80
2018-09-05T09:25:04.345Z,20.60
2018-09-05T09:27:33.218Z,20.81
2018-09-05T09:30:02.255Z,20.85
2018-09-05T09:32:31.027Z,20.68
2018-09-05T09:34:59.773Z,20.58
2018-09-05T09:37:28.463Z,21.08
2018-09-05T09:39:57.104Z,21.22
2018-09-05T09:42:25.794Z,21.31
2018-09-05T09:44:54.423Z,21.39
2018-09-05T09:47:23.185Z,21.28
2018-09-05T09:49:51.846Z,21.67
2018-09-05T09:52:21.795Z,21.68
2018-09-05T09:54:51.942Z,21.70
2018-09-05T09:57:20.909Z,21.21
2018-09-05T09:59:49.814Z,21.19
2018-09-05T10:02:23.702Z,21.33
2018-09-05T10:04:57.421Z,21.53
2018-09-05T10:07:31.207Z,21.48
2018-09-05T10:10:05.228Z,21.45
2018-09-05T10:12:39.112Z,21.51
2018-09-05T10:15:12.733Z,21.42
2018-09-05T10:17:41.544Z,21.84
2018-09-05T10:20:10.296Z,21.97
2018-09-05T10:22:39.166Z,22.31
2018-09-05T10:25:07.816Z,22.59
2018-09-05T10:27:36.443Z,23.24
2018-09-05T10:30:06.227Z,23.05
2018-09-05T10:32:34.926Z,23.31
2018-09-05T10:35:03.600Z,23.49
2018-09-05T10:37:32.286Z,23.50
2018-09-05T10:40:01.258Z,23.74
2018-09-05T10:42:29.921Z,23.85
2018-09-05T10:44:58.539Z,24.10
2018-09-05T10:47:27.192Z,24.31
2018-09-05T10:49:55.866Z,24.87
2018-09-05T10:52:24.490Z,24.57
2018-09-05T10:54:53.114Z,24.22
2018-09-05T10:57:21.824Z,24.06
2018-09-05T10:59:50.520Z,24.02
2018-09-05T11:02:19.168Z,23.69
2018-09-05T11:04:47.895Z,23.67
2018-09-05T11:07:16.560Z,24.35
2018-09-05T11:09:45.206Z,24.31
2018-09-05T11:12:13.863Z,24.63
2018-09-05T11:14:42.578Z,24.95
2018-09-05T11:17:11.461Z,25.49
2018-09-05T11:19:40.081Z,25.36
2018-09-05T11:22:08.741Z,25.18
2018-09-05T11:24:37.439Z,25.81
2018-09-05T11:30:06.442Z,25.43
2018-09-05T11:32:35.112Z,25.86
2018-09-05T11:35:03.926Z,25.30
2018-09-05T11:37:33.773Z,25.45
2018-09-05T11:40:02.526Z,25.49
2018-09-05T11:42:31.176Z,25.02
2018-09-05T11:44:59.848Z,25.18
2018-09-05T11:47:28.483Z,25.32
2018-09-05T11:49:57.120Z,25.38
2018-09-05T11:52:25.775Z,25.14
2018-09-05T11:54:54.446Z,26.05
2018-09-05T11:57:23.195Z,25.92
2018-09-05T11:59:51.876Z,25.85
2018-09-05T12:02:20.632Z,25.51
2018-09-05T12:04:49.293Z,26.02
2018-09-05T12:07:18.028Z,25.69
2018-09-05T12:09:46.714Z,25.56
2018-09-05T12:12:15.516Z,25.59
2018-09-05T12:14:44.227Z,25.80
2018-09-05T12:17:12.918Z,26.37
2018-09-05T12:19:41.610Z,26.87
2018-09-05T12:22:10.240Z,26.60
2018-09-05T12:24:38.880Z,27.37
2018-09-05T12:27:07.524Z,26.84
2018-09-05T12:29:36.256Z,27.36
2018-09-05T12:32:05.044Z,26.89
2018-09-05T12:34:33.702Z,26.80
2018-09-05T12:37:02.426Z,26.67
2018-09-05T12:39:31.152Z,26.19
2018-09-05T12:41:59.840Z,26.74
2018-09-05T12:44:28.474Z,26.49
2018-09-05T12:46:57.150Z,25.46
2018-09-05T12:49:25.926Z,25.38
2018-09-05T12:51:54.569Z,25.81
2018-09-05T12:54:23.275Z,25.75
2018-09-05T12:56:52.010Z,25.44
2018-09-05T12:59:20.777Z,25.02
2018-09-05T13:01:49.418Z,24.47
2018-09-05T13:04:18.203Z,23.95
2018-09-05T13:06:46.990Z,24.18
2018-09-05T13:09:16.437Z,24.91
2018-09-05T13:11:45.099Z,25.90
2018-09-05T13:14:13.758Z,26.42
2018-09-05T13:16:42.512Z,27.03
2018-09-05T13:19:11.196Z,27.37
2018-09-05T13:21:40.971Z,27.72
2018-09-05T13:24:10.249Z,26.67
2018-09-05T13:26:39.635Z,26.81
2018-09-05T13:29:09.548Z,26.39
2018-09-05T13:31:38.717Z,26.71
2018-09-05T13:34:07.982Z,26.90
2018-09-05T13:36:37.437Z,27.46
2018-09-05T13:39:08.107Z,27.12
2018-09-05T13:41:37.208Z,26.55
2018-09-05T13:44:05.875Z,27.43
2018-09-05T13:46:34.509Z,28.33
2018-09-05T13:49:03.267Z,27.37
2018-09-05T13:51:31.931Z,27.05
2018-09-05T13:54:00.640Z,27.82
2018-09-05T13:56:29.389Z,27.56
2018-09-05T13:58:58.102Z,27.21
2018-09-05T14:01:26.761Z,25.21
2018-09-05T14:03:55.400Z,24.29
2018-09-05T14:06:24.121Z,23.63
2018-09-05T14:08:53.109Z,23.03
2018-09-05T14:11:21.761Z,22.53
2018-09-05T14:13:50.435Z,22.38
2018-09-05T14:16:19.108Z,22.19
2018-09-05T14:21:15.327Z,22.79
2018-09-05T14:23:44.101Z,23.23
2018-09-05T14:26:12.705Z,23.50
2018-09-05T14:28:41.398Z,23.60
2018-09-05T14:31:10.117Z,24.03
2018-09-05T14:33:38.883Z,24.13
2018-09-05T14:36:07.625Z,24.07
2018-09-05T14:38:36.268Z,24.18
2018-09-05T14:41:05.569Z,23.90
2018-09-05T14:43:34.241Z,23.18
2018-09-05T14:46:02.917Z,22.72
2018-09-05T14:48:31.638Z,22.66
2018-09-05T14:51:00.310Z,22.80
2018-09-05T14:53:33.962Z,23.30
2018-09-05T14:56:02.732Z,22.74
2018-09-05T14:58:31.645Z,22.09
2018-09-05T15:01:00.345Z,21.88
2018-09-05T15:03:29.043Z,21.79
2018-09-05T15:05:57.761Z,22.05
2018-09-05T15:08:26.448Z,21.89
2018-09-05T15:10:55.165Z,21.75
2018-09-05T15:13:23.884Z,21.67
2018-09-05T15:15:52.541Z,21.58
2018-09-05T15:18:21.705Z,21.51
2018-09-05T15:20:50.425Z,21.41
2018-09-05T15:23:19.084Z,21.12
2018-09-05T15:25:47.795Z,21.02
2018-09-05T15:28:16.465Z,20.94
2018-09-05T15:30:45.098Z,20.80
2018-09-05T15:33:15.097Z,20.80
2018-09-05T15:35:43.829Z,20.76
2018-09-05T15:38:12.628Z,20.67
2018-09-05T15:40:41.321Z,20.56
2018-09-05T15:43:09.950Z,20.55
2018-09-05T15:45:38.702Z,20.55
2018-09-05T15:48:07.398Z,20.62
2018-09-05T15:50:36.059Z,20.49
2018-09-05T15:53:04.766Z,20.52
2018-09-05T15:55:33.406Z,20.55
2018-09-05T15:58:02.117Z,20.55
2018-09-05T16:00:30.785Z,20.45
2018-09-05T16:02:59.756Z,20.40
2018-09-05T16:05:28.745Z,20.55
2018-09-05T16:07:57.527Z,20.43
2018-09-05T16:10:26.262Z,20.35
2018-09-05T16:12:54.914Z,20.34
2018-09-05T16:15:23.668Z,20.27
2018-09-05T16:17:52.327Z,20.25
2018-09-05T16:20:20.976Z,20.18
2018-09-05T16:22:49.652Z,20.07
2018-09-05T16:25:18.323Z,20.01
2018-09-05T16:27:46.987Z,20.07
2018-09-05T16:30:15.716Z,19.98
2018-09-05T16:32:44.649Z,19.93
2018-09-05T16:35:13.343Z,19.88
2018-09-05T16:37:42.029Z,19.88
2018-09-05T16:40:10.782Z,19.88
2018-09-05T16:42:39.427Z,19.90
2018-09-05T16:45:08.279Z,19.93
2018-09-05T16:47:36.969Z,19.88
2018-09-05T16:50:05.795Z,19.89
2018-09-05T16:52:34.497Z,19.90
2018-09-05T16:55:03.280Z,19.90
2018-09-05T16:57:32.046Z,19.93
2018-09-05T17:00:00.827Z,19.90
2018-09-05T17:02:29.559Z,19.97
2018-09-05T17:04:58.309Z,19.96
2018-09-05T17:07:26.978Z,19.87
2018-09-05T17:09:55.695Z,19.83
2018-09-05T17:12:24.527Z,19.88
2018-09-05T17:14:53.314Z,19.74
2018-09-05T17:17:22.003Z,19.70
2018-09-05T17:19:50.714Z,19.68
2018-09-05T17:22:19.373Z,19.69
2018-09-05T17:24:48.010Z,19.67
2018-09-05T17:27:16.959Z,19.64
2018-09-05T17:29:45.693Z,19.56
2018-09-05T17:32:14.392Z,19.54
2018-09-05T17:34:43.134Z,19.48
2018-09-05T17:37:11.758Z,19.49
2018-09-05T17:39:40.486Z,19.48
2018-09-05T17:42:09.189Z,19.49
2018-09-05T17:44:37.854Z,19.50
2018-09-05T17:47:06.704Z,19.41
2018-09-05T17:49:35.358Z,19.36
2018-09-05T17:52:04.067Z,19.31
2018-09-05T17:54:32.748Z,19.33
2018-09-05T17:57:01.483Z,19.24
2018-09-05T17:59:30.172Z,19.25
2018-09-05T18:01:58.887Z,19.32
2018-09-05T18:04:27.565Z,19.15
2018-09-05T18:06:56.227Z,19.15
2018-09-05T18:09:25.454Z,19.25
2018-09-05T18:11:54.174Z,19.32
2018-09-05T18:14:23.030Z,19.32
2018-09-05T18:16:51.673Z,19.33
2018-09-05T18:19:21.303Z,19.36
2018-09-05T18:21:49.997Z,19.31
2018-09-05T18:24:18.849Z,19.31
2018-09-05T18:26:47.505Z,19.32
2018-09-05T18:29:16.135Z,19.24
2018-09-05T18:31:44.837Z,19.16
2018-09-05T18:34:13.514Z,19.19
2018-09-05T18:36:53.978Z,19.19
2018-09-05T18:39:22.670Z,19.14
2018-09-05T18:41:51.389Z,19.10
2018-09-05T18:44:20.090Z,19.10
2018-09-05T18:46:48.774Z,19.08
2018-09-05T18:49:17.499Z,19.03
2018-09-05T18:51:46.143Z,18.94
2018-09-05T18:54:14.779Z,18.90
2018-09-05T18:56:43.482Z,18.82
2018-09-05T18:59:12.274Z,18.77
2018-09-05T19:01:41.027Z,18.70
2018-09-05T19:04:09.715Z,18.68
2018-09-05T19:06:38.394Z,18.65
2018-09-05T19:09:09.654Z,18.66
2018-09-05T19:11:38.662Z,18.66
2018-09-05T19:14:07.456Z,18.70
2018-09-05T19:16:36.203Z,18.61
2018-09-05T19:19:04.871Z,18.57
2018-09-05T19:21:33.518Z,18.56
2018-09-05T19:24:02.212Z,18.50
2018-09-05T19:26:30.896Z,18.52
2018-09-05T19:28:59.542Z,18.52
2018-09-05T19:31:28.548Z,18.47
2018-09-05T19:33:57.217Z,18.48
2018-09-05T19:36:26.824Z,18.40
2018-09-05T19:38:55.531Z,18.37
2018-09-05T19:41:24.260Z,18.43
2018-09-05T19:43:53.080Z,18.42
2018-09-05T19:46:21.806Z,18.39
2018-09-05T19:48:50.581Z,18.34
2018-09-05T19:51:19.303Z,18.34
2018-09-05T19:53:48.031Z,18.36
2018-09-05T19:56:16.773Z,18.36
2018-09-05T19:58:45.413Z,18.37
2018-09-05T20:01:14.086Z,18.33
2018-09-05T20:03:42.785Z,18.37
2018-09-05T20:06:11.678Z,18.37
2018-09-05T20:08:40.415Z,18.27
2018-09-05T20:11:09.095Z,18.21
2018-09-05T20:13:37.790Z,18.10
2018-09-05T20:16:06.591Z,18.10
2018-09-05T20:18:35.225Z,18.04
2018-09-05T20:21:04.398Z,18.04
2018-09-05T20:23:33.214Z,18.04
2018-09-05T20:26:01.768Z,18.07
2018-09-05T20:28:30.521Z,18.06
2018-09-05T20:30:59.250Z,18.01
2018-09-05T20:33:27.963Z,17.96
2018-09-05T20:35:56.624Z,17.96
2018-09-05T20:38:25.354Z,17.93
2018-09-05T20:40:54.066Z,17.93
2018-09-05T20:43:22.813Z,17.90
2018-09-05T20:45:51.604Z,17.91
2018-09-05T20:48:20.289Z,17.99
2018-09-05T20:50:48.951Z,18.01
2018-09-05T20:53:17.698Z,17.99
2018-09-05T20:55:46.390Z,18.02
2018-09-05T20:58:15.154Z,18.00
2018-09-05T21:00:43.874Z,18.02
2018-09-05T21:03:12.594Z,17.94
2018-09-05T21:05:41.237Z,17.96
2018-09-05T21:08:09.894Z,17.96
2018-09-05T21:10:38.550Z,17.91
2018-09-05T21:13:07.249Z,17.92
2018-09-05T21:15:35.918Z,17.81
2018-09-05T21:18:04.680Z,17.91
2018-09-05T21:20:33.355Z,17.91
2018-09-05T21:23:02.140Z,17.95
2018-09-05T21:25:30.785Z,17.93
2018-09-05T21:27:59.451Z,17.89
2018-09-05T21:30:28.162Z,17.86
2018-09-05T21:32:56.928Z,17.81
2018-09-05T21:35:25.578Z,17.79
2018-09-05T21:37:54.218Z,17.76
2018-09-05T21:40:22.859Z,17.76
2018-09-05T21:42:51.534Z,17.75
2018-09-05T21:45:20.170Z,17.71
2018-09-05T21:47:48.807Z,17.67
2018-09-05T21:50:17.542Z,17.61
2018-09-05T21:52:46.290Z,17.60
2018-09-05T21:55:15.063Z,17.56
2018-09-05T21:57:43.719Z,17.51
2018-09-05T22:00:12.580Z,17.45
2018-09-05T22:02:41.209Z,17.42
2018-09-05T22:05:09.878Z,17.44
2018-09-05T22:07:38.510Z,17.40
2018-09-05T22:10:07.285Z,17.34
2018-09-05T22:12:36.161Z,17.28
2018-09-05T22:15:05.234Z,17.22
2018-09-05T22:17:33.935Z,17.21
2018-09-05T22:20:02.671Z,17.20
2018-09-05T22:22:31.409Z,17.23
2018-09-05T22:25:00.066Z,17.20
2018-09-05T22:27:28.756Z,17.20
2018-09-05T22:29:57.455Z,17.16
2018-09-05T22:32:26.280Z,17.13
2018-09-05T22:34:54.941Z,17.15
2018-09-05T22:37:24.367Z,17.18
2018-09-05T22:39:53.800Z,17.23
2018-09-05T22:42:22.490Z,17.18
2018-09-05T22:45:02.336Z,17.21
2018-09-05T22:47:42.938Z,17.19
2018-09-05T22:54:38.013Z,17.19
2018-09-05T22:57:46.288Z,17.08
2018-09-05T23:00:25.994Z,17.07
2018-09-05T23:03:10.545Z,17.11
2018-09-05T23:05:57.055Z,17.08
2018-09-05T23:08:39.956Z,17.08
2018-09-05T23:11:21.092Z,17.12
2018-09-05T23:14:00.904Z,17.13
2018-09-05T23:16:40.995Z,17.10
2018-09-05T23:19:33.316Z,17.12
2018-09-05T23:22:01.992Z,17.13
2018-09-05T23:24:30.644Z,17.12
2018-09-05T23:26:59.389Z,17.07
2018-09-05T23:29:28.007Z,17.04
2018-09-05T23:31:56.658Z,17.03
2018-09-05T23:34:25.322Z,17.02
2018-09-05T23:36:53.939Z,17.03
2018-09-05T23:39:22.584Z,16.96
2018-09-05T23:41:51.297Z,16.92
2018-09-05T23:44:19.964Z,16.87
2018-09-05T23:46:48.665Z,16.81
2018-09-05T23:49:17.397Z,16.75
2018-09-05T23:51:46.175Z,16.78
2018-09-05T23:54:14.860Z,16.74
2018-09-05T23:56:43.598Z,16.76
2018-09-05T23:59:12.273Z,16.77
